createdAt,value
2022-12-20T00:02:45.366Z,23.87
2022-12-20T00:05:37.875Z,23.85
2022-12-20T00:08:26.580Z,23.83
2022-12-20T00:11:15.762Z,23.82
2022-12-20T00:14:04.330Z,23.84
2022-12-20T00:16:52.937Z,23.76
2022-12-20T00:19:45.050Z,23.81
2022-12-20T00:22:33.739Z,23.87
2022-12-20T00:25:22.884Z,23.86
2022-12-20T00:28:11.499Z,23.88
2022-12-20T00:31:00.141Z,23.88
2022-12-20T00:33:50.148Z,23.85
2022-12-20T00:36:41.819Z,23.93
2022-12-20T00:39:30.433Z,23.88
2022-12-20T00:42:18.994Z,23.84
2022-12-20T00:45:08.980Z,23.83
2022-12-20T00:47:57.616Z,23.82
2022-12-20T00:50:46.246Z,23.86
2022-12-20T00:53:36.805Z,23.81
2022-12-20T00:56:26.120Z,23.86
2022-12-20T00:59:14.781Z,23.86
2022-12-20T01:02:03.528Z,23.85
2022-12-20T01:04:52.226Z,23.84
2022-12-20T01:07:40.890Z,23.80
2022-12-20T01:10:30.849Z,23.80
2022-12-20T01:13:19.403Z,23.82
2022-12-20T01:16:09.115Z,23.81
2022-12-20T01:18:57.887Z,23.73
2022-12-20T01:21:46.528Z,23.80
2022-12-20T01:24:35.256Z,23.77
2022-12-20T01:27:25.399Z,23.84
2022-12-20T01:30:14.541Z,23.83
2022-12-20T01:33:03.170Z,23.89
2022-12-20T01:35:58.868Z,23.84
2022-12-20T01:38:48.150Z,23.86
2022-12-20T01:41:37.617Z,23.82
2022-12-20T01:44:59.373Z,23.83
2022-12-20T01:47:48.322Z,23.82
2022-12-20T01:50:37.584Z,23.77
2022-12-20T01:53:26.481Z,23.80
2022-12-20T01:56:15.200Z,23.82
2022-12-20T01:59:03.881Z,23.79
2022-12-20T02:01:54.138Z,23.84
2022-12-20T02:04:43.019Z,23.82
2022-12-20T02:07:33.012Z,23.78
2022-12-20T02:10:24.006Z,23.84
2022-12-20T02:13:18.456Z,23.85
2022-12-20T02:16:07.576Z,23.86
2022-12-20T02:19:03.085Z,23.81
2022-12-20T02:21:55.586Z,23.86
2022-12-20T02:24:58.821Z,23.79
2022-12-20T02:28:01.708Z,23.82
2022-12-20T02:30:54.879Z,23.85
2022-12-20T02:33:45.453Z,23.81
2022-12-20T02:36:34.111Z,23.78
2022-12-20T02:39:23.146Z,23.77
2022-12-20T02:42:13.297Z,23.73
2022-12-20T02:45:16.944Z,23.71
2022-12-20T02:48:09.260Z,23.69
2022-12-20T02:50:59.305Z,23.68
2022-12-20T02:53:48.119Z,23.65
2022-12-20T02:56:40.459Z,23.72
2022-12-20T02:59:32.104Z,23.68
2022-12-20T03:02:20.903Z,23.62
2022-12-20T03:05:11.160Z,23.60
2022-12-20T03:07:59.803Z,23.61
2022-12-20T03:10:48.779Z,23.58
2022-12-20T03:13:37.394Z,23.56
2022-12-20T03:16:26.187Z,23.67
2022-12-20T03:19:14.812Z,23.69
2022-12-20T03:22:04.932Z,23.75
2022-12-20T03:24:53.574Z,23.67
2022-12-20T03:27:42.232Z,23.66
2022-12-20T03:30:30.806Z,23.64
2022-12-20T03:33:19.522Z,23.67
2022-12-20T03:36:08.484Z,23.59
2022-12-20T03:38:59.107Z,23.50
2022-12-20T03:41:47.730Z,23.53
2022-12-20T03:44:36.429Z,23.56
2022-12-20T03:47:25.155Z,23.61
2022-12-20T03:50:13.908Z,23.51
2022-12-20T03:53:03.076Z,23.61
2022-12-20T03:55:53.298Z,23.56
2022-12-20T03:58:42.070Z,23.58
2022-12-20T04:01:31.283Z,23.53
2022-12-20T04:04:19.905Z,23.51
2022-12-20T04:07:08.696Z,23.49
2022-12-20T04:09:57.307Z,23.54
2022-12-20T04:12:47.239Z,23.52
2022-12-20T04:15:35.901Z,23.54
2022-12-20T04:18:24.572Z,23.49
2022-12-20T04:21:14.165Z,23.45
2022-12-20T04:24:04.435Z,23.46
2022-12-20T04:26:53.086Z,23.38
2022-12-20T04:29:43.082Z,23.45
2022-12-20T04:32:31.827Z,23.48
2022-12-20T04:35:20.395Z,23.47
2022-12-20T04:38:09.035Z,23.47
2022-12-20T04:40:57.917Z,23.43
2022-12-20T04:43:46.571Z,23.40
2022-12-20T04:46:36.621Z,23.46
2022-12-20T04:49:25.350Z,23.41
2022-12-20T04:52:31.391Z,23.41
2022-12-20T04:55:20.056Z,23.48
2022-12-20T04:58:09.311Z,23.50
2022-12-20T05:00:58.302Z,23.49
2022-12-20T05:03:49.188Z,23.50
2022-12-20T05:06:37.924Z,23.46
2022-12-20T05:09:29.058Z,23.46
2022-12-20T05:12:17.810Z,23.45
2022-12-20T05:15:07.509Z,23.49
2022-12-20T05:17:59.439Z,23.47
2022-12-20T05:21:09.822Z,23.49
2022-12-20T05:24:15.824Z,23.54
2022-12-20T05:27:05.271Z,23.58
2022-12-20T05:29:53.884Z,23.55
2022-12-20T05:32:42.557Z,23.52
2022-12-20T05:35:31.316Z,23.56
2022-12-20T05:38:21.560Z,23.55
2022-12-20T05:41:10.328Z,23.59
2022-12-20T05:43:58.998Z,23.58
2022-12-20T05:46:47.704Z,23.58
2022-12-20T05:49:36.441Z,23.65
2022-12-20T05:52:26.761Z,23.65
2022-12-20T05:55:16.939Z,23.65
2022-12-20T05:58:05.556Z,23.74
2022-12-20T06:00:54.437Z,23.60
2022-12-20T06:03:43.325Z,23.60
2022-12-20T06:06:32.110Z,23.55
2022-12-20T06:09:20.841Z,23.56
2022-12-20T06:12:11.022Z,23.53
2022-12-20T06:14:59.636Z,23.50
2022-12-20T06:17:48.353Z,23.52
2022-12-20T06:20:37.227Z,23.57
2022-12-20T06:23:26.164Z,23.50
2022-12-20T06:26:14.963Z,23.44
2022-12-20T06:29:07.218Z,23.53
2022-12-20T06:31:56.138Z,23.52
2022-12-20T06:34:44.893Z,23.51
2022-12-20T06:37:33.605Z,23.44
2022-12-20T06:40:22.400Z,23.39
2022-12-20T06:43:11.129Z,23.38
2022-12-20T06:46:01.150Z,23.49
2022-12-20T06:48:49.823Z,23.50
2022-12-20T06:51:38.553Z,23.33
2022-12-20T06:54:27.216Z,23.45
2022-12-20T06:57:16.012Z,23.52
2022-12-20T07:00:05.910Z,23.49
2022-12-20T07:02:56.085Z,23.53
2022-12-20T07:05:44.837Z,23.63
2022-12-20T07:08:33.548Z,23.51
2022-12-20T07:11:22.167Z,23.59
2022-12-20T07:14:11.004Z,23.63
2022-12-20T07:16:59.812Z,23.64
2022-12-20T07:19:51.179Z,23.65
2022-12-20T07:22:40.047Z,23.78
2022-12-20T07:25:28.699Z,23.81
2022-12-20T07:28:17.313Z,23.71
2022-12-20T07:31:06.235Z,23.83
2022-12-20T07:33:54.959Z,24.01
2022-12-20T07:36:45.049Z,23.98
2022-12-20T07:39:33.685Z,24.09
2022-12-20T07:42:22.501Z,24.02
2022-12-20T07:45:11.493Z,24.07
2022-12-20T07:48:06.731Z,24.13
2022-12-20T07:51:02.556Z,24.08
2022-12-20T07:54:02.889Z,23.99
2022-12-20T07:56:54.163Z,23.86
2022-12-20T07:59:46.213Z,23.26
2022-12-20T08:02:39.350Z,22.87
2022-12-20T08:05:28.336Z,23.10
2022-12-20T08:08:17.865Z,23.14
2022-12-20T08:11:09.628Z,23.22
2022-12-20T08:13:58.609Z,23.39
2022-12-20T08:16:47.568Z,23.55
2022-12-20T08:19:36.308Z,23.62
2022-12-20T08:22:25.736Z,23.70
2022-12-20T08:25:14.382Z,23.76
2022-12-20T08:28:04.645Z,23.79
2022-12-20T08:30:53.330Z,23.79
2022-12-20T08:33:42.530Z,23.83
2022-12-20T08:36:32.540Z,23.83
2022-12-20T08:39:21.227Z,23.71
2022-12-20T08:42:09.870Z,23.81
2022-12-20T08:44:59.848Z,23.85
2022-12-20T08:47:48.878Z,23.75
2022-12-20T08:50:37.544Z,23.70
2022-12-20T08:53:26.543Z,23.72
2022-12-20T08:56:16.681Z,23.69
2022-12-20T08:59:05.342Z,23.74
2022-12-20T09:01:55.515Z,23.70
2022-12-20T09:04:44.533Z,23.52
2022-12-20T09:07:33.401Z,23.71
2022-12-20T09:10:21.986Z,23.80
2022-12-20T09:13:10.979Z,23.86
2022-12-20T09:16:02.230Z,23.92
2022-12-20T09:18:53.111Z,23.88
2022-12-20T09:21:41.999Z,23.88
2022-12-20T09:24:31.490Z,23.85
2022-12-20T09:27:20.043Z,23.87
2022-12-20T09:30:10.096Z,23.87
2022-12-20T09:32:58.767Z,23.80
2022-12-20T09:36:01.393Z,23.83
2022-12-20T09:38:50.450Z,23.81
2022-12-20T09:41:40.919Z,23.69
2022-12-20T09:44:32.808Z,23.59
2022-12-20T09:47:22.969Z,23.62
2022-12-20T09:50:16.781Z,23.73
2022-12-20T09:53:18.568Z,23.70
2022-12-20T09:56:11.674Z,23.67
2022-12-20T09:59:02.737Z,23.65
2022-12-20T10:01:52.898Z,23.69
2022-12-20T10:04:44.279Z,23.63
2022-12-20T10:07:40.170Z,23.67
2022-12-20T10:10:49.380Z,23.77
2022-12-20T10:13:47.868Z,23.79
2022-12-20T10:16:42.215Z,23.65
2022-12-20T10:19:54.239Z,23.71
2022-12-20T10:22:47.307Z,23.73
2022-12-20T10:25:36.668Z,23.78
2022-12-20T10:28:28.704Z,23.83
2022-12-20T10:31:20.430Z,23.76
2022-12-20T10:34:09.048Z,23.84
2022-12-20T10:37:13.440Z,23.76
2022-12-20T10:40:07.370Z,23.81
2022-12-20T10:42:56.853Z,23.77
2022-12-20T10:45:47.795Z,23.82
2022-12-20T10:48:37.676Z,23.74
2022-12-20T10:51:26.309Z,23.77
2022-12-20T10:54:24.967Z,23.79
2022-12-20T10:57:21.089Z,23.80
2022-12-20T11:00:29.690Z,23.77
2022-12-20T11:03:21.544Z,23.79
2022-12-20T11:06:17.773Z,23.76
2022-12-20T11:09:25.477Z,23.72
2022-12-20T11:12:15.900Z,23.67
2022-12-20T11:15:12.455Z,23.70
2022-12-20T11:18:04.782Z,23.71
2022-12-20T11:20:59.113Z,23.68
2022-12-20T11:23:50.438Z,23.67
2022-12-20T11:26:51.476Z,23.60
2022-12-20T11:30:12.946Z,23.66
2022-12-20T11:33:13.726Z,23.72
2022-12-20T11:36:06.322Z,23.75
2022-12-20T11:39:01.135Z,23.75
2022-12-20T11:41:52.382Z,23.78
2022-12-20T11:45:00.642Z,23.86
2022-12-20T11:48:04.753Z,23.77
2022-12-20T11:51:00.797Z,23.75
2022-12-20T11:53:55.983Z,23.85
2022-12-20T11:56:47.136Z,23.80
2022-12-20T11:59:40.308Z,23.80
2022-12-20T12:02:35.667Z,23.79
2022-12-20T12:05:28.201Z,23.79
2022-12-20T12:08:20.316Z,23.76
2022-12-20T12:11:47.726Z,23.81
2022-12-20T12:14:33.801Z,23.83
2022-12-20T12:17:27.880Z,23.80
2022-12-20T12:20:27.236Z,23.78
2022-12-20T12:23:31.876Z,23.83
2022-12-20T12:26:23.108Z,23.81
2022-12-20T12:29:14.107Z,23.71
2022-12-20T12:32:05.387Z,23.72
2022-12-20T12:35:06.341Z,23.74
2022-12-20T12:38:06.276Z,23.69
2022-12-20T12:41:26.761Z,23.68
2022-12-20T12:44:33.516Z,23.69
2022-12-20T12:47:30.206Z,23.69
2022-12-20T12:50:25.399Z,23.61
2022-12-20T12:53:16.514Z,23.70
2022-12-20T12:56:46.541Z,23.61
2022-12-20T12:59:48.317Z,23.72
2022-12-20T13:02:38.965Z,23.69
2022-12-20T13:05:35.564Z,23.75
2022-12-20T13:08:48.631Z,23.79
2022-12-20T13:11:46.258Z,23.76
2022-12-20T13:14:53.006Z,23.80
2022-12-20T13:17:50.576Z,23.79
2022-12-20T13:20:39.550Z,23.81
2022-12-20T13:23:28.283Z,23.77
2022-12-20T13:26:51.942Z,23.79
2022-12-20T13:29:54.619Z,23.77
2022-12-20T13:33:25.853Z,23.76
2022-12-20T13:36:35.780Z,23.81
2022-12-20T13:39:35.096Z,23.84
2022-12-20T13:42:39.327Z,23.76
2022-12-20T13:45:28.335Z,23.77
2022-12-20T13:48:18.691Z,23.72
2022-12-20T13:51:07.847Z,23.71
2022-12-20T13:53:59.600Z,23.79
2022-12-20T13:56:49.989Z,23.83
2022-12-20T13:59:40.033Z,23.81
2022-12-20T14:02:31.626Z,23.79
2022-12-20T14:05:23.517Z,23.80
2022-12-20T14:08:16.908Z,23.79
2022-12-20T14:11:13.315Z,23.73
2022-12-20T14:14:03.367Z,23.75
2022-12-20T14:16:53.366Z,23.70
2022-12-20T14:19:42.085Z,23.71
2022-12-20T14:22:30.921Z,23.69
2022-12-20T14:25:24.249Z,23.69
2022-12-20T14:28:26.833Z,23.68
2022-12-20T14:31:27.422Z,23.65
2022-12-20T14:34:23.325Z,23.65
2022-12-20T14:37:32.249Z,23.65
2022-12-20T14:40:22.219Z,23.57
2022-12-20T14:43:16.957Z,23.59
2022-12-20T14:46:10.986Z,23.61
2022-12-20T14:49:23.218Z,23.61
2022-12-20T14:52:17.875Z,23.59
2022-12-20T14:55:10.233Z,23.60
2022-12-20T14:57:59.665Z,23.58
2022-12-20T15:00:57.674Z,23.55
2022-12-20T15:03:51.980Z,23.53
2022-12-20T15:06:45.873Z,23.53
2022-12-20T15:09:34.526Z,23.64
2022-12-20T15:12:23.194Z,23.61
2022-12-20T15:15:28.826Z,23.61
2022-12-20T15:18:20.612Z,23.62
2022-12-20T15:21:15.068Z,23.69
2022-12-20T15:24:08.096Z,23.63
2022-12-20T15:26:57.508Z,23.62
2022-12-20T15:29:46.115Z,23.61
2022-12-20T15:32:34.827Z,23.66
2022-12-20T15:35:23.757Z,23.62
2022-12-20T15:38:16.621Z,23.58
2022-12-20T15:41:07.689Z,23.57
2022-12-20T15:43:58.507Z,23.65
2022-12-20T15:46:47.205Z,23.57
2022-12-20T15:49:35.924Z,23.50
2022-12-20T15:52:25.550Z,23.45
2022-12-20T15:55:14.246Z,23.54
2022-12-20T15:58:04.220Z,23.54
2022-12-20T16:00:55.310Z,23.45
2022-12-20T16:03:44.036Z,23.52
2022-12-20T16:06:32.814Z,23.46
2022-12-20T16:09:21.769Z,23.52
2022-12-20T16:12:16.004Z,23.56
2022-12-20T16:15:08.171Z,23.45
2022-12-20T16:17:56.844Z,23.50
2022-12-20T16:20:45.566Z,23.49
2022-12-20T16:23:34.150Z,23.51
2022-12-20T16:26:24.034Z,23.48
2022-12-20T16:29:12.838Z,23.48
2022-12-20T16:32:02.940Z,23.51
2022-12-20T16:34:52.010Z,23.49
2022-12-20T16:37:40.686Z,23.58
2022-12-20T16:40:31.467Z,23.56
2022-12-20T16:43:20.066Z,23.51
2022-12-20T16:46:10.617Z,23.59
2022-12-20T16:49:02.018Z,23.59
2022-12-20T16:51:50.932Z,23.63
2022-12-20T16:54:39.624Z,23.63
2022-12-20T16:57:28.208Z,23.63
2022-12-20T17:00:21.950Z,23.68
2022-12-20T17:03:10.621Z,23.60
2022-12-20T17:06:00.683Z,23.59
2022-12-20T17:11:56.319Z,23.67
2022-12-20T17:14:45.334Z,23.68
2022-12-20T17:17:34.036Z,23.65
2022-12-20T17:20:23.973Z,23.62
2022-12-20T17:23:15.916Z,23.63
2022-12-20T17:26:04.630Z,23.63
2022-12-20T17:28:53.804Z,23.57
2022-12-20T17:31:44.269Z,23.43
2022-12-20T17:34:32.925Z,23.51
2022-12-20T17:37:21.941Z,23.53
2022-12-20T17:40:14.988Z,23.49
2022-12-20T17:43:03.612Z,23.45
2022-12-20T17:45:52.282Z,23.56
2022-12-20T17:48:43.886Z,23.56
2022-12-20T17:51:33.235Z,23.65
2022-12-20T17:54:23.488Z,23.71
2022-12-20T17:57:16.668Z,23.76
2022-12-20T18:00:05.878Z,23.80
2022-12-20T18:02:54.939Z,23.70
2022-12-20T18:05:43.582Z,23.78
2022-12-20T18:08:32.139Z,23.63
2022-12-20T18:11:21.498Z,23.78
2022-12-20T18:14:11.588Z,23.85
2022-12-20T18:17:00.302Z,23.87
2022-12-20T18:19:48.896Z,23.97
2022-12-20T18:22:37.945Z,23.95
2022-12-20T18:25:26.569Z,23.99
2022-12-20T18:28:15.190Z,24.03
2022-12-20T18:31:06.383Z,24.06
2022-12-20T18:33:58.355Z,23.96
2022-12-20T18:36:47.434Z,24.03
2022-12-20T18:39:36.069Z,24.01
2022-12-20T18:42:24.715Z,24.12
2022-12-20T18:45:13.398Z,24.03
2022-12-20T18:48:03.423Z,23.99
2022-12-20T18:50:52.038Z,23.87
2022-12-20T18:53:41.950Z,23.92
2022-12-20T18:56:32.608Z,23.95
2022-12-20T18:59:21.676Z,23.94
2022-12-20T19:02:13.051Z,23.96
2022-12-20T19:05:03.203Z,23.88
2022-12-20T19:07:53.611Z,23.93
2022-12-20T19:10:42.401Z,23.90
2022-12-20T19:13:31.119Z,23.97
2022-12-20T19:16:21.557Z,23.93
2022-12-20T19:19:10.845Z,23.91
2022-12-20T19:22:00.803Z,24.04
2022-12-20T19:24:49.415Z,23.99
2022-12-20T19:27:38.028Z,24.07
2022-12-20T19:30:27.793Z,24.04
2022-12-20T19:33:16.431Z,24.03
2022-12-20T19:36:10.558Z,23.84
2022-12-20T19:39:02.332Z,23.91
2022-12-20T19:45:00.660Z,23.93
2022-12-20T19:47:53.497Z,23.99
2022-12-20T19:50:42.087Z,24.02
2022-12-20T19:53:30.791Z,24.06
2022-12-20T19:56:22.824Z,24.05
2022-12-20T19:59:14.034Z,23.95
2022-12-20T20:02:02.940Z,24.01
2022-12-20T20:04:51.760Z,24.02
2022-12-20T20:07:40.421Z,24.01
2022-12-20T20:10:30.754Z,24.00
2022-12-20T20:13:20.729Z,23.89
2022-12-20T20:16:09.821Z,23.93
2022-12-20T20:18:58.547Z,24.02
2022-12-20T20:21:48.739Z,24.12
2022-12-20T20:24:37.370Z,24.05
2022-12-20T20:27:26.052Z,24.05
2022-12-20T20:30:17.114Z,24.10
2022-12-20T20:33:05.869Z,24.08
2022-12-20T20:35:58.162Z,24.05
2022-12-20T20:38:47.382Z,24.11
2022-12-20T20:41:36.065Z,24.04
2022-12-20T20:44:24.722Z,23.94
2022-12-20T20:47:14.758Z,23.94
2022-12-20T20:50:03.454Z,23.95
2022-12-20T20:52:52.147Z,24.08
2022-12-20T20:55:41.176Z,24.11
2022-12-20T20:58:30.305Z,24.06
2022-12-20T21:01:19.729Z,24.06
2022-12-20T21:04:10.029Z,24.06
2022-12-20T21:06:58.633Z,24.00
2022-12-20T21:09:47.893Z,24.04
2022-12-20T21:12:36.761Z,24.08
2022-12-20T21:15:27.924Z,24.12
2022-12-20T21:18:17.811Z,24.04
2022-12-20T21:21:12.209Z,23.99
2022-12-20T21:24:00.841Z,24.01
2022-12-20T21:26:51.113Z,23.98
2022-12-20T21:29:40.108Z,23.92
2022-12-20T21:32:30.742Z,23.79
2022-12-20T21:35:19.509Z,23.74
2022-12-20T21:38:09.591Z,23.93
2022-12-20T21:41:02.299Z,23.80
2022-12-20T21:43:51.159Z,23.85
2022-12-20T21:46:39.872Z,24.13
2022-12-20T21:49:28.566Z,24.09
2022-12-20T21:52:18.469Z,24.17
2022-12-20T21:55:09.359Z,24.12
2022-12-20T21:57:58.103Z,24.05
2022-12-20T22:00:52.510Z,23.91
2022-12-20T22:03:44.417Z,24.05
2022-12-20T22:06:35.402Z,24.18
2022-12-20T22:09:24.535Z,24.25
2022-12-20T22:12:14.844Z,24.26
2022-12-20T22:15:03.553Z,24.25
2022-12-20T22:17:52.215Z,24.27
2022-12-20T22:20:40.851Z,24.18
2022-12-20T22:23:29.487Z,24.33
2022-12-20T22:26:19.992Z,24.26
2022-12-20T22:29:10.190Z,24.24
2022-12-20T22:31:58.990Z,24.25
2022-12-20T22:34:47.785Z,24.26
2022-12-20T22:37:36.584Z,24.23
2022-12-20T22:40:25.255Z,24.29
2022-12-20T22:43:13.891Z,24.34
2022-12-20T22:46:04.008Z,24.36
2022-12-20T22:48:52.929Z,24.30
2022-12-20T22:51:41.541Z,24.30
2022-12-20T22:54:30.171Z,24.29
2022-12-20T22:57:19.139Z,24.33
2022-12-20T23:00:13.166Z,24.11
2022-12-20T23:03:03.373Z,24.20
2022-12-20T23:05:56.048Z,24.33
2022-12-20T23:08:44.880Z,24.07
2022-12-20T23:11:50.948Z,24.00
2022-12-20T23:15:03.580Z,23.91
2022-12-20T23:17:52.937Z,24.17
2022-12-20T23:21:00.243Z,24.04
2022-12-20T23:23:55.560Z,24.09
2022-12-20T23:26:45.179Z,24.17
2022-12-20T23:29:33.949Z,24.17
2022-12-20T23:32:23.238Z,24.20
2022-12-20T23:35:12.993Z,24.20
2022-12-20T23:38:03.130Z,24.26
2022-12-20T23:40:51.839Z,24.52
2022-12-20T23:43:40.596Z,24.39
2022-12-20T23:46:29.360Z,24.39
2022-12-20T23:49:20.325Z,24.46
2022-12-20T23:52:09.079Z,24.59
2022-12-20T23:54:59.021Z,24.69
2022-12-20T23:57:47.925Z,24.45
